sensor_id;sensor_type;location;lat;lon;timestamp;pressure;altitude;pressure_sealevel;temperature;humidity
21664;BME280;10993;52.510;13.456;2022-07-06T00:01:45;-26667.38;;;17.61;60.38
21664;BME280;10993;52.510;13.456;2022-07-06T00:06:45;-26662.91;;;17.46;60.88
21664;BME280;10993;52.510;13.456;2022-07-06T00:11:47;-26663.03;;;17.46;61.88
21664;BME280;10993;52.510;13.456;2022-07-06T00:16:47;-26662.59;;;17.45;62.12
21664;BME280;10993;52.510;13.456;2022-07-06T00:21:47;-26658.25;;;17.30;62.85
21664;BME280;10993;52.510;13.456;2022-07-06T00:26:49;-26659.00;;;17.33;63.33
21664;BME280;10993;52.510;13.456;2022-07-06T00:31:49;-26653.59;;;17.15;64.09
21664;BME280;10993;52.510;13.456;2022-07-06T00:36:50;-26654.34;;;17.17;64.28
21664;BME280;10993;52.510;13.456;2022-07-06T00:41:51;-26653.75;;;17.15;64.81
21664;BME280;10993;52.510;13.456;2022-07-06T00:46:52;-26652.66;;;17.12;65.06
21664;BME280;10993;52.510;13.456;2022-07-06T00:51:52;-26651.09;;;17.07;65.46
21664;BME280;10993;52.510;13.456;2022-07-06T00:56:54;-26653.88;;;17.16;65.22
21664;BME280;10993;52.510;13.456;2022-07-06T01:01:54;-26653.13;;;17.13;65.64
21664;BME280;10993;52.510;13.456;2022-07-06T01:06:55;-26650.94;;;17.06;65.43
21664;BME280;10993;52.510;13.456;2022-07-06T01:11:58;-26652.03;;;17.10;66.48
21664;BME280;10993;52.510;13.456;2022-07-06T01:16:58;-26655.75;;;17.22;66.15
21664;BME280;10993;52.510;13.456;2022-07-06T01:22:00;-26654.06;;;17.16;66.08
21664;BME280;10993;52.510;13.456;2022-07-06T01:27:00;-26652.19;;;17.10;66.80
21664;BME280;10993;52.510;13.456;2022-07-06T01:32:01;-26650.00;;;17.03;67.68
21664;BME280;10993;52.510;13.456;2022-07-06T01:37:03;-26651.41;;;17.08;67.39
21664;BME280;10993;52.510;13.456;2022-07-06T01:42:04;-26650.94;;;17.06;66.67
21664;BME280;10993;52.510;13.456;2022-07-06T01:47:05;-26652.03;;;17.10;66.42
21664;BME280;10993;52.510;13.456;2022-07-06T01:52:06;-26658.38;;;17.31;65.41
21664;BME280;10993;52.510;13.456;2022-07-06T01:57:07;-26660.72;;;17.39;65.12
21664;BME280;10993;52.510;13.456;2022-07-06T02:02:07;-26659.00;;;17.33;64.99
21664;BME280;10993;52.510;13.456;2022-07-06T02:07:09;-26663.81;;;17.49;64.16
21664;BME280;10993;52.510;13.456;2022-07-06T02:12:09;-26664.44;;;17.51;63.26
21664;BME280;10993;52.510;13.456;2022-07-06T02:17:10;-26667.22;;;17.60;62.27
21664;BME280;10993;52.510;13.456;2022-07-06T02:22:11;-26667.38;;;17.61;63.34
21664;BME280;10993;52.510;13.456;2022-07-06T02:27:12;-26656.69;;;17.25;71.28
21664;BME280;10993;52.510;13.456;2022-07-06T02:32:12;-26649.25;;;17.00;70.81
21664;BME280;10993;52.510;13.456;2022-07-06T02:37:14;-26649.25;;;17.00;73.85
21664;BME280;10993;52.510;13.456;2022-07-06T02:42:14;-26646.28;;;16.91;78.09
21664;BME280;10993;52.510;13.456;2022-07-06T02:47:14;-26622.97;;;16.13;86.07
21664;BME280;10993;52.510;13.456;2022-07-06T02:52:16;-26625.16;;;16.20;95.95
21664;BME280;10993;52.510;13.456;2022-07-06T02:57:16;-26612.69;;;15.79;100.00
21664;BME280;10993;52.510;13.456;2022-07-06T03:02:17;-26609.28;;;15.68;100.00
21664;BME280;10993;52.510;13.456;2022-07-06T03:07:19;-26605.25;;;15.55;100.00
21664;BME280;10993;52.510;13.456;2022-07-06T03:12:19;-26600.56;;;15.39;100.00
21664;BME280;10993;52.510;13.456;2022-07-06T03:17:19;-26597.59;;;15.29;100.00
21664;BME280;10993;52.510;13.456;2022-07-06T03:22:22;-26597.28;;;15.28;100.00
21664;BME280;10993;52.510;13.456;2022-07-06T03:27:23;-26596.97;;;15.27;100.00
21664;BME280;10993;52.510;13.456;2022-07-06T03:32:23;-26597.91;;;15.30;100.00
21664;BME280;10993;52.510;13.456;2022-07-06T03:37:25;-26600.88;;;15.40;100.00
21664;BME280;10993;52.510;13.456;2022-07-06T03:42:25;-26601.66;;;15.43;100.00
21664;BME280;10993;52.510;13.456;2022-07-06T03:47:26;-26602.44;;;15.45;100.00
21664;BME280;10993;52.510;13.456;2022-07-06T03:52:27;-26605.25;;;15.55;100.00
21664;BME280;10993;52.510;13.456;2022-07-06T03:57:27;-26604.94;;;15.53;100.00
21664;BME280;10993;52.510;13.456;2022-07-06T04:02:28;-26613.34;;;15.81;98.63
21664;BME280;10993;52.510;13.456;2022-07-06T04:07:30;-26625.47;;;16.22;94.20
21664;BME280;10993;52.510;13.456;2022-07-06T04:12:30;-26688.63;;;18.31;81.61
21664;BME280;10993;52.510;13.456;2022-07-06T04:17:30;-26770.22;;;21.04;64.66
21664;BME280;10993;52.510;13.456;2022-07-06T04:22:51;-26845.13;;;23.55;52.83
21664;BME280;10993;52.510;13.456;2022-07-06T04:27:51;-26862.47;;;24.13;47.87
21664;BME280;10993;52.510;13.456;2022-07-06T04:32:52;-26839.91;;;23.37;48.93
21664;BME280;10993;52.510;13.456;2022-07-06T04:37:54;-26821.19;;;22.74;49.98
21664;BME280;10993;52.510;13.456;2022-07-06T04:42:54;-26774.84;;;21.19;56.01
21664;BME280;10993;52.510;13.456;2022-07-06T04:47:54;-26826.41;;;22.92;51.15
21664;BME280;10993;52.510;13.456;2022-07-06T04:52:56;-26900.28;;;25.40;42.41
21664;BME280;10993;52.510;13.456;2022-07-06T04:57:56;-26966.50;;;27.64;36.74
21664;BME280;10993;52.510;13.456;2022-07-06T05:02:57;-26976.41;;;27.97;34.96
21664;BME280;10993;52.510;13.456;2022-07-06T05:07:58;-27018.78;;;29.41;32.30
21664;BME280;10993;52.510;13.456;2022-07-06T05:12:59;-26970.16;;;27.76;34.23
21664;BME280;10993;52.510;13.456;2022-07-06T05:17:59;-27019.41;;;29.43;32.27
21664;BME280;10993;52.510;13.456;2022-07-06T05:23:01;-27055.31;;;30.65;30.77
21664;BME280;10993;52.510;13.456;2022-07-06T05:28:01;-27049.56;;;30.46;29.69
21664;BME280;10993;52.510;13.456;2022-07-06T05:33:01;-27055.75;;;30.67;28.60
21664;BME280;10993;52.510;13.456;2022-07-06T05:38:03;-27076.47;;;31.38;28.28
21664;BME280;10993;52.510;13.456;2022-07-06T05:43:04;-27139.19;;;33.52;25.17
21664;BME280;10993;52.510;13.456;2022-07-06T05:48:05;-27170.75;;;34.60;23.97
21664;BME280;10993;52.510;13.456;2022-07-06T05:53:26;-27232.56;;;36.73;21.23
21664;BME280;10993;52.510;13.456;2022-07-06T05:58:26;-27239.75;;;36.98;21.17
21664;BME280;10993;52.510;13.456;2022-07-06T06:03:27;-27246.00;;;37.20;21.02
21664;BME280;10993;52.510;13.456;2022-07-06T06:08:28;-27264.50;;;37.84;19.76
21664;BME280;10993;52.510;13.456;2022-07-06T06:13:29;-27265.25;;;37.86;19.32
21664;BME280;10993;52.510;13.456;2022-07-06T06:18:29;-27308.97;;;39.38;18.43
21664;BME280;10993;52.510;13.456;2022-07-06T06:23:31;-27276.72;;;38.26;18.71
21664;BME280;10993;52.510;13.456;2022-07-06T06:28:31;-27251.38;;;37.38;19.13
21664;BME280;10993;52.510;13.456;2022-07-06T06:33:31;-27254.81;;;37.50;19.60
21664;BME280;10993;52.510;13.456;2022-07-06T06:38:33;-27262.25;;;37.76;19.09
21664;BME280;10993;52.510;13.456;2022-07-06T06:43:33;-27304.66;;;39.23;17.86
21664;BME280;10993;52.510;13.456;2022-07-06T06:48:34;-27316.97;;;39.66;17.76
21664;BME280;10993;52.510;13.456;2022-07-06T06:53:35;-27312.38;;;39.50;17.49
21664;BME280;10993;52.510;13.456;2022-07-06T06:58:36;-27318.91;;;39.72;16.99
21664;BME280;10993;52.510;13.456;2022-07-06T07:03:36;-27239.75;;;36.98;19.64
21664;BME280;10993;52.510;13.456;2022-07-06T07:08:38;-27262.72;;;37.78;18.05
21664;BME280;10993;52.510;13.456;2022-07-06T07:13:38;-27208.94;;;35.92;20.04
21664;BME280;10993;52.510;13.456;2022-07-06T07:18:39;-27257.34;;;37.59;19.09
21664;BME280;10993;52.510;13.456;2022-07-06T07:23:40;-27146.25;;;33.76;22.94
21664;BME280;10993;52.510;13.456;2022-07-06T07:28:41;-27073.00;;;31.26;26.46
21664;BME280;10993;52.510;13.456;2022-07-06T07:33:41;-27089.91;;;31.84;24.55
21664;BME280;10993;52.510;13.456;2022-07-06T07:38:43;-27030.63;;;29.81;26.89
21664;BME280;10993;52.510;13.456;2022-07-06T07:43:43;-27123.69;;;32.99;22.62
21664;BME280;10993;52.510;13.456;2022-07-06T07:48:44;-27124.28;;;33.01;22.62
21664;BME280;10993;52.510;13.456;2022-07-06T07:53:45;-27200.41;;;35.63;20.18
21664;BME280;10993;52.510;13.456;2022-07-06T07:58:46;-27172.38;;;34.66;20.87
21664;BME280;10993;52.510;13.456;2022-07-06T08:03:48;-27104.84;;;32.35;22.44
21664;BME280;10993;52.510;13.456;2022-07-06T08:08:50;-27130.91;;;33.24;21.23
21664;BME280;10993;52.510;13.456;2022-07-06T08:13:50;-27178.25;;;34.86;20.43
21664;BME280;10993;52.510;13.456;2022-07-06T08:18:51;-27114.03;;;32.66;22.51
21664;BME280;10993;52.510;13.456;2022-07-06T08:23:53;-27024.56;;;29.61;26.55
21664;BME280;10993;52.510;13.456;2022-07-06T08:28:53;-26959.66;;;27.41;29.37
21664;BME280;10993;52.510;13.456;2022-07-06T08:33:54;-26952.66;;;27.17;29.33
21664;BME280;10993;52.510;13.456;2022-07-06T08:38:57;-26929.16;;;26.38;31.50
21664;BME280;10993;52.510;13.456;2022-07-06T08:43:57;-26930.53;;;26.42;32.09
21664;BME280;10993;52.510;13.456;2022-07-06T08:48:58;-27040.47;;;30.15;26.14
21664;BME280;10993;52.510;13.456;2022-07-06T08:54:01;-26965.13;;;27.59;28.57
21664;BME280;10993;52.510;13.456;2022-07-06T08:59:02;-26889.88;;;25.05;31.18
21664;BME280;10993;52.510;13.456;2022-07-06T09:04:04;-26866.91;;;24.28;32.21
21664;BME280;10993;52.510;13.456;2022-07-06T09:09:07;-26860.63;;;24.07;31.06
21664;BME280;10993;52.510;13.456;2022-07-06T09:14:07;-26874.72;;;24.54;29.48
21664;BME280;10993;52.510;13.456;2022-07-06T09:19:10;-26875.81;;;24.58;29.96
21664;BME280;10993;52.510;13.456;2022-07-06T09:24:12;-26890.50;;;25.07;30.58
21664;BME280;10993;52.510;13.456;2022-07-06T09:29:13;-26948.84;;;27.04;27.48
21664;BME280;10993;52.510;13.456;2022-07-06T09:34:14;-26937.09;;;26.64;27.61
21664;BME280;10993;52.510;13.456;2022-07-06T09:39:17;-26966.06;;;27.62;25.81
21664;BME280;10993;52.510;13.456;2022-07-06T09:44:22;-26928.69;;;26.36;25.50
21664;BME280;10993;52.510;13.456;2022-07-06T09:49:24;-26888.34;;;25.00;28.67
21664;BME280;10993;52.510;13.456;2022-07-06T09:54:26;-26866.16;;;24.25;29.68
21664;BME280;10993;52.510;13.456;2022-07-06T09:59:29;-26866.44;;;24.26;30.18
21664;BME280;10993;52.510;13.456;2022-07-06T10:04:30;-26885.00;;;24.89;28.71
21664;BME280;10993;52.510;13.456;2022-07-06T10:09:32;-26912.06;;;25.80;27.48
21664;BME280;10993;52.510;13.456;2022-07-06T10:14:33;-26885.28;;;24.90;30.38
21664;BME280;10993;52.510;13.456;2022-07-06T10:19:33;-26869.53;;;24.37;31.21
21664;BME280;10993;52.510;13.456;2022-07-06T10:24:36;-26875.81;;;24.58;30.59
21664;BME280;10993;52.510;13.456;2022-07-06T10:29:43;-26897.22;;;25.30;30.28
21664;BME280;10993;52.510;13.456;2022-07-06T10:34:43;-26920.47;;;26.08;30.03
21664;BME280;10993;52.510;13.456;2022-07-06T10:39:47;-26924.44;;;26.22;30.21
21664;BME280;10993;52.510;13.456;2022-07-06T10:45:07;-26937.09;;;26.64;29.03
21664;BME280;10993;52.510;13.456;2022-07-06T10:50:08;-26941.38;;;26.79;29.41
21664;BME280;10993;52.510;13.456;2022-07-06T10:55:28;-26959.66;;;27.41;27.84
21664;BME280;10993;52.510;13.456;2022-07-06T11:00:49;-27036.84;;;30.03;23.97
21664;BME280;10993;52.510;13.456;2022-07-06T11:05:57;-27026.06;;;29.66;24.54
21664;BME280;10993;52.510;13.456;2022-07-06T11:11:10;-27018.03;;;29.39;24.91
21664;BME280;10993;52.510;13.456;2022-07-06T11:16:11;-27038.50;;;30.08;24.12
21664;BME280;10993;52.510;13.456;2022-07-06T11:21:15;-27065.13;;;30.99;23.31
21664;BME280;10993;52.510;13.456;2022-07-06T11:26:17;-26998.16;;;28.71;25.27
21664;BME280;10993;52.510;13.456;2022-07-06T11:31:18;-26948.06;;;27.02;28.26
21664;BME280;10993;52.510;13.456;2022-07-06T11:36:20;-26904.13;;;25.53;30.78
21664;BME280;10993;52.510;13.456;2022-07-06T11:41:22;-26905.50;;;25.58;30.53
21664;BME280;10993;52.510;13.456;2022-07-06T11:46:25;-26915.88;;;25.93;28.90
21664;BME280;10993;52.510;13.456;2022-07-06T11:51:27;-26902.59;;;25.48;28.40
21664;BME280;10993;52.510;13.456;2022-07-06T11:56:29;-26926.72;;;26.29;27.55
21664;BME280;10993;52.510;13.456;2022-07-06T12:01:30;-26947.63;;;27.00;27.40
21664;BME280;10993;52.510;13.456;2022-07-06T12:06:33;-26965.59;;;27.61;26.09
21664;BME280;10993;52.510;13.456;2022-07-06T12:11:36;-26984.00;;;28.23;26.02
21664;BME280;10993;52.510;13.456;2022-07-06T12:16:36;-26975.94;;;27.96;27.66
21664;BME280;10993;52.510;13.456;2022-07-06T12:21:42;-26961.63;;;27.47;27.20
21664;BME280;10993;52.510;13.456;2022-07-06T12:26:44;-26945.94;;;26.94;28.13
21664;BME280;10993;52.510;13.456;2022-07-06T12:31:50;-26933.28;;;26.52;29.28
21664;BME280;10993;52.510;13.456;2022-07-06T12:36:52;-26926.41;;;26.28;29.42
21664;BME280;10993;52.510;13.456;2022-07-06T12:41:55;-26927.47;;;26.32;29.28
21664;BME280;10993;52.510;13.456;2022-07-06T12:47:02;-26952.78;;;27.17;28.36
21664;BME280;10993;52.510;13.456;2022-07-06T12:52:09;-26939.09;;;26.71;28.51
21664;BME280;10993;52.510;13.456;2022-07-06T12:57:12;-26930.84;;;26.43;28.27
21664;BME280;10993;52.510;13.456;2022-07-06T13:02:21;-26942.44;;;26.82;28.07
21664;BME280;10993;52.510;13.456;2022-07-06T13:07:21;-26956.31;;;27.29;27.96
21664;BME280;10993;52.510;13.456;2022-07-06T13:12:24;-26962.41;;;27.50;27.61
21664;BME280;10993;52.510;13.456;2022-07-06T13:17:25;-26957.53;;;27.33;28.20
21664;BME280;10993;52.510;13.456;2022-07-06T13:22:25;-26962.56;;;27.50;28.33
21664;BME280;10993;52.510;13.456;2022-07-06T13:27:27;-26942.75;;;26.83;28.40
21664;BME280;10993;52.510;13.456;2022-07-06T13:32:27;-26952.94;;;27.18;27.70
21664;BME280;10993;52.510;13.456;2022-07-06T13:37:28;-26943.97;;;26.88;28.19
21664;BME280;10993;52.510;13.456;2022-07-06T13:42:30;-26926.88;;;26.30;29.05
21664;BME280;10993;52.510;13.456;2022-07-06T13:47:30;-26935.72;;;26.60;28.33
21664;BME280;10993;52.510;13.456;2022-07-06T13:52:30;-26920.91;;;26.10;27.76
21664;BME280;10993;52.510;13.456;2022-07-06T13:57:32;-26903.03;;;25.49;28.59
21664;BME280;10993;52.510;13.456;2022-07-06T14:02:32;-26886.81;;;24.95;29.78
21664;BME280;10993;52.510;13.456;2022-07-06T14:07:33;-26896.63;;;25.28;29.43
21664;BME280;10993;52.510;13.456;2022-07-06T14:12:34;-26897.38;;;25.30;29.21
21664;BME280;10993;52.510;13.456;2022-07-06T14:17:35;-26907.94;;;25.66;28.83
21664;BME280;10993;52.510;13.456;2022-07-06T14:22:35;-26887.59;;;24.97;28.27
21664;BME280;10993;52.510;13.456;2022-07-06T14:27:37;-26880.09;;;24.72;29.20
21664;BME280;10993;52.510;13.456;2022-07-06T14:32:37;-26886.22;;;24.93;30.08
21664;BME280;10993;52.510;13.456;2022-07-06T14:37:38;-26884.84;;;24.88;30.65
21664;BME280;10993;52.510;13.456;2022-07-06T14:42:39;-26883.31;;;24.83;30.54
21664;BME280;10993;52.510;13.456;2022-07-06T14:47:40;-26883.75;;;24.84;31.22
21664;BME280;10993;52.510;13.456;2022-07-06T14:52:40;-26879.31;;;24.70;31.36
21664;BME280;10993;52.510;13.456;2022-07-06T14:57:42;-26870.75;;;24.41;32.05
21664;BME280;10993;52.510;13.456;2022-07-06T15:02:42;-26871.50;;;24.43;32.01
21664;BME280;10993;52.510;13.456;2022-07-06T15:07:43;-26862.31;;;24.12;32.94
21664;BME280;10993;52.510;13.456;2022-07-06T15:12:44;-26857.41;;;23.96;33.39
21664;BME280;10993;52.510;13.456;2022-07-06T15:17:45;-26851.59;;;23.76;33.79
21664;BME280;10993;52.510;13.456;2022-07-06T15:22:45;-26848.06;;;23.64;34.44
21664;BME280;10993;52.510;13.456;2022-07-06T15:27:47;-26836.53;;;23.26;35.45
21664;BME280;10993;52.510;13.456;2022-07-06T15:32:48;-26817.19;;;22.61;36.94
21664;BME280;10993;52.510;13.456;2022-07-06T15:37:48;-26803.66;;;22.15;38.20
21664;BME280;10993;52.510;13.456;2022-07-06T15:42:50;-26799.66;;;22.02;38.32
21664;BME280;10993;52.510;13.456;2022-07-06T15:47:54;-26789.94;;;21.69;39.14
21664;BME280;10993;52.510;13.456;2022-07-06T15:52:55;-26804.56;;;22.18;38.10
21664;BME280;10993;52.510;13.456;2022-07-06T15:57:57;-26806.13;;;22.24;38.09
21664;BME280;10993;52.510;13.456;2022-07-06T16:02:57;-26807.81;;;22.29;37.86
21664;BME280;10993;52.510;13.456;2022-07-06T16:07:57;-26824.09;;;22.84;37.09
21664;BME280;10993;52.510;13.456;2022-07-06T16:12:59;-26814.56;;;22.52;37.00
21664;BME280;10993;52.510;13.456;2022-07-06T16:18:00;-26819.94;;;22.70;36.71
21664;BME280;10993;52.510;13.456;2022-07-06T16:23:00;-26828.88;;;23.00;35.85
21664;BME280;10993;52.510;13.456;2022-07-06T16:28:02;-26829.47;;;23.02;35.96
21664;BME280;10993;52.510;13.456;2022-07-06T16:33:03;-26828.25;;;22.98;35.34
21664;BME280;10993;52.510;13.456;2022-07-06T16:38:03;-26820.25;;;22.71;36.08
21664;BME280;10993;52.510;13.456;2022-07-06T16:43:05;-26829.63;;;23.02;35.12
21664;BME280;10993;52.510;13.456;2022-07-06T16:48:06;-26832.09;;;23.11;34.57
21664;BME280;10993;52.510;13.456;2022-07-06T16:53:07;-26830.25;;;23.05;33.72
21664;BME280;10993;52.510;13.456;2022-07-06T16:58:08;-26818.09;;;22.64;34.24
21664;BME280;10993;52.510;13.456;2022-07-06T17:03:09;-26815.81;;;22.56;35.13
21664;BME280;10993;52.510;13.456;2022-07-06T17:08:10;-26806.13;;;22.24;35.92
21664;BME280;10993;52.510;13.456;2022-07-06T17:13:12;-26793.66;;;21.82;36.82
21664;BME280;10993;52.510;13.456;2022-07-06T17:18:12;-26788.41;;;21.64;37.32
21664;BME280;10993;52.510;13.456;2022-07-06T17:23:14;-26784.56;;;21.51;37.61
21664;BME280;10993;52.510;13.456;2022-07-06T17:28:16;-26780.72;;;21.39;38.48
21664;BME280;10993;52.510;13.456;2022-07-06T17:33:16;-26772.06;;;21.10;38.87
21664;BME280;10993;52.510;13.456;2022-07-06T17:38:17;-26775.47;;;21.21;39.67
21664;BME280;10993;52.510;13.456;2022-07-06T17:43:19;-26773.78;;;21.15;39.71
21664;BME280;10993;52.510;13.456;2022-07-06T17:48:19;-26781.78;;;21.42;39.99
21664;BME280;10993;52.510;13.456;2022-07-06T17:53:19;-26773.00;;;21.13;40.30
21664;BME280;10993;52.510;13.456;2022-07-06T17:58:21;-26775.16;;;21.20;40.87
21664;BME280;10993;52.510;13.456;2022-07-06T18:03:21;-26774.09;;;21.16;41.15
21664;BME280;10993;52.510;13.456;2022-07-06T18:08:22;-26766.53;;;20.91;42.15
21664;BME280;10993;52.510;13.456;2022-07-06T18:13:23;-26761.13;;;20.73;42.68
21664;BME280;10993;52.510;13.456;2022-07-06T18:18:24;-26762.06;;;20.76;43.15
21664;BME280;10993;52.510;13.456;2022-07-06T18:23:25;-26758.66;;;20.65;43.39
21664;BME280;10993;52.510;13.456;2022-07-06T18:28:27;-26754.50;;;20.51;43.71
21664;BME280;10993;52.510;13.456;2022-07-06T18:33:28;-26750.63;;;20.38;44.45
21664;BME280;10993;52.510;13.456;2022-07-06T18:38:29;-26746.94;;;20.26;44.89
21664;BME280;10993;52.510;13.456;2022-07-06T18:43:31;-26747.84;;;20.29;44.76
21664;BME280;10993;52.510;13.456;2022-07-06T18:48:32;-26747.56;;;20.28;44.94
21664;BME280;10993;52.510;13.456;2022-07-06T18:53:32;-26742.31;;;20.10;45.60
21664;BME280;10993;52.510;13.456;2022-07-06T18:58:34;-26738.75;;;19.98;45.25
21664;BME280;10993;52.510;13.456;2022-07-06T19:03:34;-26742.59;;;20.11;43.77
21664;BME280;10993;52.510;13.456;2022-07-06T19:08:34;-26738.91;;;19.99;43.57
21664;BME280;10993;52.510;13.456;2022-07-06T19:13:36;-26737.38;;;19.94;43.58
21664;BME280;10993;52.510;13.456;2022-07-06T19:18:40;-26736.44;;;19.91;43.41
21664;BME280;10993;52.510;13.456;2022-07-06T19:23:40;-26729.78;;;19.68;43.84
21664;BME280;10993;52.510;13.456;2022-07-06T19:28:42;-26722.22;;;19.43;44.04
21664;BME280;10993;52.510;13.456;2022-07-06T19:33:42;-26719.13;;;19.33;44.50
21664;BME280;10993;52.510;13.456;2022-07-06T19:38:42;-26714.19;;;19.16;45.25
21664;BME280;10993;52.510;13.456;2022-07-06T19:43:44;-26705.50;;;18.88;45.66
21664;BME280;10993;52.510;13.456;2022-07-06T19:48:44;-26699.63;;;18.68;46.28
21664;BME280;10993;52.510;13.456;2022-07-06T19:53:45;-26690.50;;;18.38;47.12
21664;BME280;10993;52.510;13.456;2022-07-06T19:58:49;-26685.69;;;18.22;48.11
21664;BME280;10993;52.510;13.456;2022-07-06T20:03:49;-26685.06;;;18.19;48.39
21664;BME280;10993;52.510;13.456;2022-07-06T20:08:50;-26673.59;;;17.81;49.88
21664;BME280;10993;52.510;13.456;2022-07-06T20:13:52;-26671.72;;;17.75;50.63
21664;BME280;10993;52.510;13.456;2022-07-06T20:18:52;-26672.34;;;17.77;50.48
21664;BME280;10993;52.510;13.456;2022-07-06T20:23:53;-26671.41;;;17.74;51.22
21664;BME280;10993;52.510;13.456;2022-07-06T20:28:54;-26668.78;;;17.65;52.12
21664;BME280;10993;52.510;13.456;2022-07-06T20:33:55;-26663.66;;;17.48;52.92
21664;BME280;10993;52.510;13.456;2022-07-06T20:38:56;-26665.84;;;17.56;53.10
21664;BME280;10993;52.510;13.456;2022-07-06T20:43:58;-26658.38;;;17.31;54.10
21664;BME280;10993;52.510;13.456;2022-07-06T20:48:58;-26652.81;;;17.12;55.06
21664;BME280;10993;52.510;13.456;2022-07-06T20:53:59;-26649.84;;;17.02;55.83
21664;BME280;10993;52.510;13.456;2022-07-06T20:59:00;-26653.75;;;17.15;56.35
21664;BME280;10993;52.510;13.456;2022-07-06T21:04:01;-26653.13;;;17.13;56.33
21664;BME280;10993;52.510;13.456;2022-07-06T21:09:01;-26655.75;;;17.22;55.86
21664;BME280;10993;52.510;13.456;2022-07-06T21:14:03;-26650.00;;;17.03;56.63
21664;BME280;10993;52.510;13.456;2022-07-06T21:19:04;-26651.25;;;17.07;56.88
21664;BME280;10993;52.510;13.456;2022-07-06T21:24:04;-26650.00;;;17.03;56.95
21664;BME280;10993;52.510;13.456;2022-07-06T21:29:06;-26645.34;;;16.88;57.60
21664;BME280;10993;52.510;13.456;2022-07-06T21:34:06;-26648.16;;;16.97;58.68
21664;BME280;10993;52.510;13.456;2022-07-06T21:39:07;-26649.53;;;17.01;59.09
21664;BME280;10993;52.510;13.456;2022-07-06T21:44:08;-26647.53;;;16.95;59.72
21664;BME280;10993;52.510;13.456;2022-07-06T21:49:09;-26644.88;;;16.86;61.21
21664;BME280;10993;52.510;13.456;2022-07-06T21:54:09;-26646.75;;;16.92;61.58
21664;BME280;10993;52.510;13.456;2022-07-06T21:59:11;-26643.47;;;16.81;62.25
21664;BME280;10993;52.510;13.456;2022-07-06T22:04:11;-26643.78;;;16.82;62.85
21664;BME280;10993;52.510;13.456;2022-07-06T22:09:12;-26644.41;;;16.84;62.49
21664;BME280;10993;52.510;13.456;2022-07-06T22:14:13;-26640.38;;;16.71;63.25
21664;BME280;10993;52.510;13.456;2022-07-06T22:19:16;-26641.16;;;16.74;62.35
21664;BME280;10993;52.510;13.456;2022-07-06T22:24:16;-26641.47;;;16.75;62.39
21664;BME280;10993;52.510;13.456;2022-07-06T22:29:18;-26640.38;;;16.71;62.58
21664;BME280;10993;52.510;13.456;2022-07-06T22:34:19;-26640.53;;;16.72;61.69
21664;BME280;10993;52.510;13.456;2022-07-06T22:39:19;-26640.22;;;16.70;60.91
21664;BME280;10993;52.510;13.456;2022-07-06T22:44:21;-26641.00;;;16.73;60.93
21664;BME280;10993;52.510;13.456;2022-07-06T22:49:21;-26635.09;;;16.53;60.99
21664;BME280;10993;52.510;13.456;2022-07-06T22:54:21;-26638.66;;;16.65;60.29
21664;BME280;10993;52.510;13.456;2022-07-06T22:59:23;-26637.59;;;16.62;60.25
21664;BME280;10993;52.510;13.456;2022-07-06T23:04:23;-26639.59;;;16.68;59.03
21664;BME280;10993;52.510;13.456;2022-07-06T23:09:24;-26643.03;;;16.80;58.37
21664;BME280;10993;52.510;13.456;2022-07-06T23:14:25;-26642.09;;;16.77;56.96
21664;BME280;10993;52.510;13.456;2022-07-06T23:19:26;-26646.13;;;16.90;57.17
21664;BME280;10993;52.510;13.456;2022-07-06T23:24:26;-26649.09;;;17.00;56.47
21664;BME280;10993;52.510;13.456;2022-07-06T23:29:28;-26648.63;;;16.98;55.95
21664;BME280;10993;52.510;13.456;2022-07-06T23:34:28;-26644.56;;;16.85;55.42
21664;BME280;10993;52.510;13.456;2022-07-06T23:39:28;-26650.16;;;17.03;55.94
21664;BME280;10993;52.510;13.456;2022-07-06T23:44:30;-26648.94;;;16.99;55.80
21664;BME280;10993;52.510;13.456;2022-07-06T23:49:33;-26648.47;;;16.98;55.45
21664;BME280;10993;52.510;13.456;2022-07-06T23:54:34;-26647.38;;;16.94;55.58
21664;BME280;10993;52.510;13.456;2022-07-06T23:59:35;-26657.16;;;17.27;54.40
